Time;durP1;ratioP1;P1;durP2;ratioP2;P2;SDS_P1;SDS_P2;PMS_P1;PMS_P2;Temp;Humidity;BMP_temperature;BMP_pressure;BME280_temperature;BME280_humidity;BME280_pressure;Samples;Min_cycle;Max_cycle;Signal;HPM_P1;HPM_P2
2022/04/02 00:01:09;;;;;;;39.13;23.63;;;3.00;99.90;;;0.94;93.96;98253.19;10364771;28;96656;-79
2022/04/02 00:06:12;;;;;;;44.17;24.87;;;2.90;99.90;;;0.88;94.14;98248.59;10385533;28;96446;-79
2022/04/02 00:11:15;;;;;;;40.37;24.10;;;2.80;99.90;;;0.82;93.97;98243.97;10363669;28;97049;-80
2022/04/02 00:16:18;;;;;;;40.40;22.37;;;2.80;99.90;;;0.78;93.76;98220.75;10393246;28;96528;-79
2022/04/02 00:21:21;;;;;;;41.83;22.37;;;2.70;99.90;;;0.74;93.93;98227.25;10376201;28;96528;-79
2022/04/02 00:26:24;;;;;;;38.77;21.00;;;2.70;99.90;;;0.72;94.01;98238.84;10368485;28;96587;-79
2022/04/02 00:31:29;;;;;;;41.53;24.00;;;2.70;99.90;;;0.70;94.18;98222.50;10365829;28;98391;-81
2022/04/02 00:36:37;;;;;;;40.83;22.57;;;2.70;99.90;;;0.69;93.88;98218.25;10353264;28;96876;-79
2022/04/02 00:41:40;;;;;;;34.27;19.53;;;2.60;99.90;;;0.64;93.49;98213.47;10346878;28;96553;-79
2022/04/02 00:46:44;;;;;;;32.57;19.73;;;2.60;99.90;;;0.61;93.99;98239.09;10375409;28;97655;-79
2022/04/02 00:51:50;;;;;;;32.87;19.93;;;2.60;99.90;;;0.58;93.79;98231.56;10363479;28;96498;-79
2022/04/02 00:56:54;;;;;;;37.10;20.63;;;2.60;99.90;;;0.53;93.51;98224.97;10367272;28;97355;-78
2022/04/02 01:01:57;;;;;;;33.63;19.40;;;2.60;99.90;;;0.52;93.46;98235.59;10367949;28;98915;-79
2022/04/02 01:07:00;;;;;;;32.00;19.73;;;2.50;99.90;;;0.50;93.19;98232.31;10331157;28;97034;-79
2022/04/02 01:12:04;;;;;;;31.13;17.80;;;2.50;99.90;;;0.45;93.26;98237.19;10360912;28;97648;-79
2022/04/02 01:17:07;;;;;;;34.47;19.20;;;2.50;99.90;;;0.40;92.99;98234.19;10362552;28;96841;-80
2022/04/02 01:22:10;;;;;;;32.93;19.37;;;2.40;99.90;;;0.33;93.39;98241.81;10344356;28;96468;-79
2022/04/02 01:27:13;;;;;;;34.10;18.33;;;2.40;99.90;;;0.27;93.80;98245.03;10352385;28;97166;-79
2022/04/02 01:32:16;;;;;;;33.30;18.90;;;2.30;99.90;;;0.22;93.34;98258.53;10360705;28;96561;-79
2022/04/02 01:37:19;;;;;;;35.43;20.27;;;2.30;99.90;;;0.16;93.51;98261.75;10340288;28;96517;-79
2022/04/02 01:42:24;;;;;;;34.73;19.50;;;2.20;99.90;;;0.16;93.66;98269.59;10352832;28;96693;-79
2022/04/02 01:47:28;;;;;;;34.43;19.03;;;2.20;99.90;;;0.15;93.75;98277.56;10352985;28;97473;-79
2022/04/02 01:52:30;;;;;;;30.87;17.90;;;2.20;99.90;;;0.15;93.87;98272.34;10386071;28;96526;-79
2022/04/02 01:57:34;;;;;;;34.23;19.70;;;2.20;99.90;;;0.17;94.17;98275.63;10380191;28;96881;-79
2022/04/02 02:02:38;;;;;;;33.90;19.70;;;2.20;99.90;;;0.14;93.96;98271.53;10361171;28;96627;-79
2022/04/02 02:07:49;;;;;;;32.97;19.57;;;2.20;99.90;;;0.09;94.03;98284.22;10362012;28;97890;-79
2022/04/02 02:12:52;;;;;;;25.53;15.70;;;2.10;99.90;;;0.06;93.73;98284.53;10358957;28;96584;-79
2022/04/02 02:17:55;;;;;;;33.37;19.23;;;2.10;99.90;;;0.03;93.66;98279.59;10356291;28;96690;-79
2022/04/02 02:22:58;;;;;;;32.73;19.70;;;2.10;99.90;;;0.01;94.00;98297.19;10339653;28;96599;-79
2022/04/02 02:28:01;;;;;;;37.23;21.47;;;2.00;99.90;;;0.01;93.87;98302.44;10368186;28;96494;-79
2022/04/02 02:38:30;;;;;;;34.53;19.40;;;2.00;99.90;;;0.06;93.69;98291.50;10363987;28;96621;-79
2022/04/02 02:43:33;;;;;;;35.10;20.13;;;2.00;99.90;;;0.08;93.70;98290.41;10394228;28;96609;-79
2022/04/02 02:48:36;;;;;;;34.67;20.03;;;2.00;99.90;;;0.12;93.41;98277.88;10380265;28;96550;-78
2022/04/02 02:53:39;;;;;;;35.30;20.07;;;2.10;99.90;;;0.13;93.53;98280.34;10375345;28;96542;-79
2022/04/02 02:58:43;;;;;;;32.67;19.97;;;2.10;99.90;;;0.17;92.67;98280.84;10370328;28;96520;-79
2022/04/02 03:03:46;;;;;;;36.87;19.77;;;2.10;99.90;;;0.20;92.77;98291.03;10383931;28;98369;-79
2022/04/02 03:08:48;;;;;;;33.53;19.83;;;2.10;99.90;;;0.22;92.39;98291.69;10361035;28;96541;-79
2022/04/02 03:13:51;;;;;;;31.63;18.70;;;2.10;99.90;;;0.25;92.35;98287.00;10407546;28;96527;-79
2022/04/02 03:18:55;;;;;;;29.77;18.20;;;2.20;99.90;;;0.26;92.13;98288.63;10386397;28;96465;-79
2022/04/02 03:23:58;;;;;;;32.57;18.97;;;2.20;99.90;;;0.29;92.23;98297.94;10390770;28;96492;-79
2022/04/02 03:29:02;;;;;;;31.13;18.47;;;2.20;99.90;;;0.29;92.13;98302.34;10402208;28;96698;-79
2022/04/02 03:34:05;;;;;;;34.77;19.70;;;2.20;99.90;;;0.22;91.66;98302.13;10417468;28;98404;-79
2022/04/02 03:39:08;;;;;;;36.00;20.80;;;2.20;99.90;;;0.19;91.38;98308.47;10419469;28;96366;-79
2022/04/02 03:44:11;;;;;;;33.53;19.93;;;2.10;99.90;;;0.15;91.65;98322.81;10420450;28;96459;-79
2022/04/02 03:49:14;;;;;;;37.23;22.07;;;2.10;99.90;;;0.12;91.74;98317.88;10402825;28;96599;-79
2022/04/02 03:54:17;;;;;;;37.37;20.97;;;2.10;99.90;;;0.09;91.62;98318.16;10370186;28;96724;-79
2022/04/02 03:59:20;;;;;;;30.33;18.93;;;2.00;99.90;;;0.07;91.91;98329.75;10413360;28;96555;-79
2022/04/02 04:04:24;;;;;;;33.07;19.90;;;2.00;99.90;;;0.08;92.24;98334.81;10417077;28;96594;-79
2022/04/02 04:09:28;;;;;;;31.40;17.83;;;2.00;99.90;;;0.09;92.53;98340.84;10414420;28;96587;-78
2022/04/02 04:14:31;;;;;;;30.57;17.53;;;2.10;99.90;;;0.11;93.08;98334.50;10417080;28;96598;-79
2022/04/02 04:19:34;;;;;;;31.83;18.43;;;2.10;99.90;;;0.15;93.23;98351.53;10405790;28;96538;-79
2022/04/02 04:24:37;;;;;;;32.73;19.33;;;2.20;99.90;;;0.19;93.66;98345.06;10366151;28;96668;-79
2022/04/02 04:29:40;;;;;;;36.37;19.03;;;2.20;99.90;;;0.29;93.98;98358.03;10407775;28;96584;-79
2022/04/02 04:34:43;;;;;;;28.70;16.43;;;2.30;99.90;;;0.38;94.50;98356.34;10377095;28;97135;-79
2022/04/02 04:39:46;;;;;;;27.57;17.27;;;2.40;99.90;;;0.43;94.20;98354.94;10385419;27;96580;-79
2022/04/02 04:44:48;;;;;;;28.50;16.77;;;2.50;99.90;;;0.50;93.85;98349.94;10414858;28;96521;-79
2022/04/02 04:49:51;;;;;;;34.50;19.47;;;2.50;99.90;;;0.56;93.20;98340.69;10389192;28;98576;-79
2022/04/02 04:54:55;;;;;;;30.63;18.60;;;2.50;99.90;;;0.64;93.36;98352.00;10417180;28;96466;-79
2022/04/02 04:59:58;;;;;;;28.10;17.63;;;2.60;99.90;;;0.75;93.37;98356.19;10416420;28;97217;-79
2022/04/02 05:05:01;;;;;;;38.47;20.30;;;2.70;99.90;;;0.83;91.96;98365.88;10395604;28;96510;-80
2022/04/02 05:10:24;;;;;;;29.40;18.50;;;2.80;99.90;;;0.88;90.85;98369.69;10387360;28;96487;-79
2022/04/02 05:15:27;;;;;;;32.67;19.47;;;2.80;99.90;;;0.92;90.47;98378.91;10386259;28;98332;-79
2022/04/02 05:20:30;;;;;;;28.50;17.23;;;2.80;99.90;;;0.98;90.19;98370.44;10394177;28;96591;-81
2022/04/02 05:25:35;;;;;;;30.87;17.93;;;2.90;99.90;;;1.05;90.44;98368.84;10386708;28;96584;-80
2022/04/02 05:30:38;;;;;;;30.33;17.57;;;3.00;99.90;;;1.11;89.99;98377.06;10369240;28;96727;-79
2022/04/02 05:35:42;;;;;;;39.40;24.30;;;3.00;99.90;;;1.17;90.01;98384.31;10372348;28;96765;-78
2022/04/02 05:40:44;;;;;;;32.23;17.77;;;3.10;99.90;;;1.24;89.81;98393.19;10372505;28;96443;-78
2022/04/02 05:45:48;;;;;;;31.43;18.27;;;3.20;99.90;;;1.30;89.49;98398.63;10355528;28;96606;-79
2022/04/02 05:50:51;;;;;;;29.33;16.87;;;3.20;99.90;;;1.36;89.09;98399.00;10373655;28;96480;-78
2022/04/02 05:55:55;;;;;;;32.37;18.13;;;3.30;99.90;;;1.37;88.11;98405.88;10372148;28;96480;-79
2022/04/02 06:00:58;;;;;;;28.47;16.80;;;3.30;99.90;;;1.42;88.20;98408.84;10354628;28;97551;-78
2022/04/02 06:06:01;;;;;;;29.63;16.77;;;3.30;99.90;;;1.49;88.14;98404.63;10371803;28;97123;-79
2022/04/02 06:11:07;;;;;;;24.37;15.83;;;3.40;99.90;;;1.58;88.18;98403.72;10372313;28;96569;-79
2022/04/02 06:16:10;;;;;;;27.03;16.50;;;3.50;99.90;;;1.66;87.61;98409.00;10355353;28;96688;-78
2022/04/02 06:21:13;;;;;;;28.67;17.90;;;3.60;99.90;;;1.78;87.50;98396.47;10372707;28;96513;-81
2022/04/02 06:26:17;;;;;;;28.80;16.43;;;3.60;99.90;;;1.91;87.66;98403.91;10345794;28;96489;-79
2022/04/02 06:31:20;;;;;;;24.30;14.77;;;3.80;99.90;;;2.03;87.55;98405.25;10360660;28;96599;-79
2022/04/02 06:36:24;;;;;;;24.43;15.17;;;3.90;99.90;;;2.12;86.84;98399.09;10372286;28;96539;-78
2022/04/02 06:41:27;;;;;;;23.03;14.20;;;4.00;99.90;;;2.23;87.21;98411.09;10371976;28;96600;-79
2022/04/02 06:46:30;;;;;;;23.33;14.57;;;4.10;99.90;;;2.33;86.93;98430.94;10356773;28;96537;-80
2022/04/02 06:51:34;;;;;;;24.83;14.57;;;4.20;99.90;;;2.30;85.49;98436.50;10354928;28;96461;-79
2022/04/02 06:56:37;;;;;;;27.60;14.97;;;4.20;99.90;;;2.24;84.33;98445.00;10373854;28;96579;-79
2022/04/02 07:01:40;;;;;;;24.50;14.60;;;4.20;99.90;;;2.20;84.64;98451.53;10303124;28;96497;-80
2022/04/02 07:06:45;;;;;;;25.33;16.00;;;4.10;99.90;;;2.26;84.40;98455.31;10309668;28;97299;-78
2022/04/02 07:11:48;;;;;;;26.07;15.67;;;4.10;99.90;;;2.30;84.40;98454.03;10295716;28;97176;-79
2022/04/02 07:16:50;;;;;;;25.63;15.93;;;4.20;99.90;;;2.34;84.09;98450.94;10326090;28;96630;-79
2022/04/02 07:21:54;;;;;;;25.60;15.20;;;4.20;99.90;;;2.39;83.86;98453.88;10294331;28;96487;-79
2022/04/02 07:26:58;;;;;;;23.40;14.53;;;4.30;99.90;;;2.48;83.11;98451.31;10295567;28;97398;-79
2022/04/02 07:32:02;;;;;;;23.97;15.53;;;4.40;99.90;;;2.57;83.82;98459.03;10303858;28;99402;-80
2022/04/02 07:37:40;;;;;;;24.57;14.63;;;4.40;99.90;;;2.67;83.67;98461.53;10341441;28;96537;-79
2022/04/02 07:43:23;;;;;;;22.43;14.90;;;4.50;99.90;;;2.85;84.19;98471.91;10305363;28;98089;-79
2022/04/02 07:48:26;;;;;;;;;;;4.70;99.90;;;2.92;82.68;98468.47;10297392;28;96466;-78
2022/04/02 07:53:36;;;;;;;26.90;14.83;;;4.80;99.90;;;3.03;82.68;98475.19;10351608;28;96470;-78
2022/04/02 07:58:46;;;;;;;23.20;14.13;;;4.90;99.90;;;3.11;81.67;98477.81;10306346;28;98302;-78
2022/04/02 08:03:49;;;;;;;23.03;14.30;;;5.00;99.90;;;3.16;80.70;98478.16;10393357;28;96514;-78
2022/04/02 08:08:55;;;;;;;20.27;13.93;;;5.00;99.90;;;3.19;80.70;98492.78;10396357;28;98458;-78
2022/04/02 08:13:59;;;;;;;22.83;14.87;;;5.10;99.90;;;3.23;80.92;98480.97;10379509;28;97728;-78
2022/04/02 08:19:03;;;;;;;23.47;13.30;;;5.10;99.90;;;3.31;80.84;98488.84;10375175;28;96531;-78
2022/04/02 08:24:06;;;;;;;24.13;14.13;;;5.20;99.90;;;3.29;79.36;98493.44;10375874;28;96673;-78
2022/04/02 08:29:28;;;;;;;24.17;16.13;;;5.20;99.90;;;3.31;80.30;98490.66;10391667;28;96517;-79
2022/04/02 08:34:41;;;;;;;23.90;15.10;;;5.20;99.90;;;3.39;79.80;98493.28;10359038;28;96478;-79
2022/04/02 08:39:57;;;;;;;20.13;13.13;;;5.20;99.90;;;3.48;79.66;98501.00;10390885;27;96617;-79
2022/04/02 08:45:09;;;;;;;24.00;15.63;;;5.30;99.90;;;3.60;79.44;98506.75;10376398;28;96712;-79
2022/04/02 08:50:15;;;;;;;20.80;14.35;;;5.40;99.90;;;3.66;79.54;98510.53;10393615;27;96480;-78
2022/04/02 08:55:34;;;;;;;22.40;13.17;;;5.50;99.90;;;3.64;79.13;98509.84;10357214;28;96499;-78
2022/04/02 09:00:46;;;;;;;23.10;13.27;;;5.50;99.90;;;3.75;79.14;98520.84;10388286;28;96649;-78
2022/04/02 09:06:10;;;;;;;28.13;14.30;;;5.60;99.90;;;3.89;79.25;98521.97;10361811;28;96579;-78
2022/04/02 09:11:27;;;;;;;31.20;15.03;;;5.70;99.90;;;3.96;78.36;98525.63;10376223;28;97799;-78
2022/04/02 09:17:01;;;;;;;42.60;18.70;;;5.80;99.90;;;4.07;78.85;98526.22;10373469;28;96706;-78
2022/04/02 09:22:32;;;;;;;30.37;15.00;;;5.90;99.90;;;4.12;78.79;98535.25;10368550;28;96458;-78
2022/04/02 09:27:54;;;;;;;43.73;25.20;;;6.00;99.90;;;4.21;79.41;98542.16;10377605;28;96589;-79
2022/04/02 09:33:49;;;;;;;22.13;14.13;;;6.10;99.90;;;4.23;79.16;98536.72;10365540;28;96756;-80
2022/04/02 09:38:55;;;;;;;24.37;15.50;;;6.10;99.90;;;4.31;80.42;98544.59;10368119;28;97707;-80
2022/04/02 09:44:54;;;;;;;22.13;14.40;;;6.20;99.90;;;4.58;81.08;98551.25;10410010;28;96577;-79
2022/04/02 09:50:11;;;;;;;16.90;11.20;;;6.40;99.90;;;4.86;80.92;98551.66;10387569;28;97095;-79
2022/04/02 09:55:16;;;;;;;30.27;16.93;;;6.70;99.90;;;5.05;79.94;98556.50;10398971;28;98390;-79
2022/04/02 10:00:20;;;;;;;25.47;15.27;;;6.90;99.90;;;5.20;79.14;98563.63;10413474;28;96502;-79
2022/04/02 10:05:37;;;;;;;23.67;15.23;;;7.00;99.90;;;5.32;80.71;98564.88;10375348;28;97698;-79
2022/04/02 10:10:44;;;;;;;24.30;15.60;;;7.20;99.90;;;5.38;80.78;98566.81;10389715;28;96387;-79
2022/04/02 10:15:52;;;;;;;26.53;16.83;;;7.30;99.90;;;5.35;80.90;98573.28;10375183;28;96757;-79
2022/04/02 10:20:57;;;;;;;25.13;16.40;;;7.30;99.90;;;5.40;81.84;98571.91;10386365;28;96590;-79
2022/04/02 10:26:09;;;;;;;30.83;17.23;;;7.30;99.90;;;5.37;81.04;98571.28;10398578;28;96469;-79
2022/04/02 10:31:41;;;;;;;24.30;16.08;;;7.30;99.90;;;5.35;80.39;98567.19;10419024;28;96524;-79
2022/04/02 10:36:51;;;;;;;23.63;15.57;;;7.30;99.90;;;5.36;81.07;98582.00;10396984;28;96651;-79
2022/04/02 10:42:03;;;;;;;28.53;17.93;;;7.30;99.90;;;5.31;81.79;98582.50;10382482;28;96465;-79
2022/04/02 10:47:09;;;;;;;26.90;16.20;;;7.20;99.90;;;5.25;81.29;98585.00;10377881;28;96624;-79
2022/04/02 10:52:15;;;;;;;24.13;16.57;;;7.20;99.90;;;5.22;81.71;98585.38;10361347;28;96756;-79
2022/04/02 10:57:18;;;;;;;22.50;14.03;;;7.20;99.90;;;5.13;82.23;98592.47;10344420;28;97309;-79
2022/04/02 11:02:23;;;;;;;25.10;16.70;;;7.10;99.90;;;5.03;82.72;98590.03;10376073;28;96670;-80
2022/04/02 11:07:29;;;;;;;25.57;16.47;;;7.00;99.90;;;4.97;83.56;98601.25;10379674;28;96621;-80
2022/04/02 11:12:39;;;;;;;25.43;15.47;;;6.90;99.90;;;4.94;83.81;98603.44;10377526;28;96454;-79
2022/04/02 11:17:46;;;;;;;22.20;14.00;;;6.90;99.90;;;4.88;84.17;98607.56;10379727;28;97029;-78
2022/04/02 11:22:52;;;;;;;26.33;16.73;;;6.80;99.90;;;4.82;83.96;98616.97;10386050;28;96583;-78
2022/04/02 11:28:09;;;;;;;242.60;56.77;;;6.80;99.90;;;4.70;82.67;98622.75;10377079;28;96882;-79
2022/04/02 11:33:18;;;;;;;134.20;42.03;;;6.70;99.90;;;4.61;83.17;98621.94;10376602;28;96467;-78
2022/04/02 11:38:42;;;;;;;35.10;17.17;;;6.60;99.90;;;4.49;84.07;98620.66;10359411;28;96623;-79
2022/04/02 11:43:47;;;;;;;29.67;15.50;;;6.50;99.90;;;4.37;85.15;98632.50;10392140;28;96735;-79
2022/04/02 11:49:00;;;;;;;24.13;14.57;;;6.30;99.90;;;4.27;86.01;98628.25;10360574;28;96593;-78
2022/04/02 11:54:10;;;;;;;23.33;14.27;;;6.20;99.90;;;4.25;86.85;98626.78;10391286;27;97032;-79
2022/04/02 11:59:17;;;;;;;24.27;15.07;;;6.20;99.90;;;4.31;87.58;98641.88;10375459;28;96524;-78
2022/04/02 12:04:25;;;;;;;24.20;14.13;;;6.10;99.90;;;4.37;88.09;98635.97;10375966;28;96582;-79
2022/04/02 12:09:28;;;;;;;22.57;14.10;;;6.20;99.90;;;4.47;88.53;98630.53;10340126;28;96673;-79
2022/04/02 12:14:37;;;;;;;19.80;11.90;;;6.30;99.90;;;4.52;88.76;98629.03;10359979;28;96523;-78
2022/04/02 12:19:53;;;;;;;21.30;12.23;;;6.40;99.90;;;4.53;88.67;98628.06;10391397;27;96610;-78
2022/04/02 12:25:04;;;;;;;22.43;14.30;;;6.40;99.90;;;4.52;88.82;98625.59;10391490;28;96555;-79
2022/04/02 12:30:10;;;;;;;18.50;11.60;;;6.40;99.90;;;4.46;89.03;98627.09;10374647;28;96478;-78
2022/04/02 12:35:15;;;;;;;19.73;12.03;;;6.30;99.90;;;4.40;88.88;98627.75;10375521;28;98088;-79
2022/04/02 12:40:26;;;;;;;20.07;12.70;;;6.30;99.90;;;4.37;89.28;98628.06;10363567;28;98304;-79
2022/04/02 12:45:30;;;;;;;;;;;6.20;99.90;;;4.37;89.76;98624.63;10374965;28;96582;-79
2022/04/02 12:50:35;;;;;;;22.37;12.07;;;6.30;99.90;;;4.38;90.30;98629.72;10364612;28;98078;-79
2022/04/02 12:55:38;;;;;;;20.50;12.30;;;6.20;99.90;;;4.45;90.65;98635.97;10373231;28;96617;-79
2022/04/02 13:00:44;;;;;;;16.60;10.63;;;6.30;99.90;;;4.46;89.85;98634.97;10369586;28;96663;-79
2022/04/02 13:05:52;;;;;;;15.90;10.43;;;6.30;99.90;;;4.43;89.54;98632.66;10366966;28;99201;-78
2022/04/02 13:11:01;;;;;;;16.53;9.73;;;6.30;99.90;;;4.44;89.74;98634.31;10399489;28;96768;-78
2022/04/02 13:16:07;;;;;;;14.07;9.50;;;6.30;99.90;;;4.52;90.31;98636.13;10401086;28;96477;-79
2022/04/02 13:21:10;;;;;;;13.53;9.10;;;6.30;99.90;;;4.60;90.28;98637.91;10401914;28;96641;-78
2022/04/02 13:26:20;;;;;;;15.83;9.63;;;6.30;99.90;;;4.56;89.71;98637.44;10378946;28;96631;-79
2022/04/02 13:31:29;;;;;;;13.47;8.87;;;6.40;99.90;;;4.62;89.70;98635.91;10343421;28;97874;-78
2022/04/02 13:37:20;;;;;;;14.83;8.60;;;6.40;99.90;;;4.67;89.76;98637.06;10398564;27;96597;-79
2022/04/02 13:43:11;;;;;;;25.73;12.63;;;6.40;99.90;;;4.70;89.38;98646.44;10384535;28;96614;-79
2022/04/02 13:48:21;;;;;;;30.00;11.30;;;6.40;99.90;;;4.71;89.63;98648.91;10378581;28;96558;-78
2022/04/02 13:53:38;;;;;;;12.87;7.83;;;6.50;99.90;;;4.70;88.97;98656.97;10391975;28;96496;-79
2022/04/02 13:58:46;;;;;;;12.47;7.83;;;6.50;99.90;;;4.68;89.10;98643.13;10372411;28;96583;-78
2022/04/02 14:04:08;;;;;;;13.30;8.00;;;6.50;99.90;;;4.66;88.87;98647.75;10358783;28;96595;-79
2022/04/02 14:09:12;;;;;;;15.60;8.73;;;6.40;99.90;;;4.64;88.56;98652.38;10383200;28;96518;-78
2022/04/02 14:14:23;;;;;;;12.43;8.67;;;6.40;99.90;;;4.61;88.45;98661.41;10374082;28;97230;-79
2022/04/02 14:19:46;;;;;;;17.73;7.77;;;6.40;99.90;;;4.63;88.92;98666.53;10374610;28;96618;-78
2022/04/02 14:25:16;;;;;;;14.07;8.30;;;6.40;99.90;;;4.62;89.30;98673.59;10429449;28;96659;-78
2022/04/02 14:31:01;;;;;;;10.60;7.20;;;6.40;99.90;;;4.57;89.09;98663.56;10405601;28;96580;-78
2022/04/02 14:36:37;;;;;;;11.17;7.60;;;6.40;99.90;;;4.50;89.22;98667.84;10369249;28;96652;-79
2022/04/02 14:42:06;;;;;;;10.73;7.17;;;6.30;99.90;;;4.41;89.81;98676.72;10346408;28;96552;-79
2022/04/02 14:48:01;;;;;;;11.03;5.63;;;6.20;99.90;;;4.29;89.89;98680.69;10407239;28;96461;-79
2022/04/02 14:53:26;;;;;;;10.40;6.67;;;6.10;99.90;;;4.20;90.83;98686.94;10405261;27;96796;-78
2022/04/02 14:59:03;;;;;;;10.27;6.20;;;6.00;99.90;;;4.12;91.35;98692.19;10383730;28;96626;-77
2022/04/02 15:04:18;;;;;;;10.43;6.23;;;5.90;99.90;;;3.98;90.55;98699.72;10366776;28;96743;-77
2022/04/02 15:10:03;;;;;;;10.87;6.90;;;5.80;99.90;;;3.87;90.50;98699.22;10351000;28;96568;-78
2022/04/02 15:15:08;;;;;;;12.47;6.97;;;5.70;99.90;;;3.70;90.41;98701.78;10369577;28;96650;-79
2022/04/02 15:20:19;;;;;;;11.40;7.10;;;5.60;99.90;;;3.61;90.69;98713.28;10373691;28;96408;-78
2022/04/02 15:25:25;;;;;;;14.43;8.27;;;5.50;99.90;;;3.52;91.04;98716.03;10421395;27;96855;-79
2022/04/02 15:30:52;;;;;;;11.20;7.73;;;5.40;99.90;;;3.48;91.45;98712.91;10412176;28;97741;-77
2022/04/02 15:35:58;;;;;;;11.67;7.47;;;5.30;99.90;;;3.45;91.94;98721.09;10361383;28;96423;-78
2022/04/02 15:41:22;;;;;;;14.27;8.60;;;5.30;99.90;;;3.48;92.78;98732.13;10406575;28;96599;-77
2022/04/02 15:46:32;;;;;;;15.47;9.23;;;5.30;99.90;;;3.47;92.82;98733.06;10367440;28;96536;-78
2022/04/02 15:52:06;;;;;;;15.32;9.52;;;5.30;99.90;;;3.36;93.10;98732.53;10361857;28;97785;-79
2022/04/02 15:57:12;;;;;;;17.37;10.77;;;5.30;99.90;;;3.23;93.17;98748.72;10354502;28;96542;-79
2022/04/02 16:02:43;;;;;;;18.33;11.17;;;5.10;99.90;;;3.10;93.45;98753.56;10371633;28;96635;-79
2022/04/02 16:08:13;;;;;;;20.47;11.80;;;5.00;99.90;;;3.00;93.59;98755.47;10389871;28;98074;-79
2022/04/02 16:13:26;;;;;;;20.27;11.77;;;4.90;99.90;;;2.90;94.00;98764.28;10385428;28;96561;-78
2022/04/02 16:18:30;;;;;;;20.80;12.50;;;4.80;99.90;;;2.82;94.45;98766.03;10399883;28;96613;-78
2022/04/02 16:23:36;;;;;;;18.63;11.63;;;4.70;99.90;;;2.76;94.69;98777.13;10402669;28;98409;-78
2022/04/02 16:28:45;;;;;;;15.87;10.77;;;4.60;99.90;;;2.69;95.08;98779.53;10395449;28;98247;-78
2022/04/02 16:33:50;;;;;;;19.33;12.07;;;4.60;99.90;;;2.61;95.42;98787.34;10383191;28;96810;-80
2022/04/02 16:38:56;;;;;;;19.20;12.13;;;4.50;99.90;;;2.50;95.36;98790.22;10376912;28;98205;-79
2022/04/02 16:44:15;;;;;;;19.10;12.10;;;4.40;99.90;;;2.38;95.67;98790.44;10380931;28;96782;-80
2022/04/02 16:49:20;;;;;;;19.27;11.13;;;4.30;99.90;;;2.29;95.77;98793.16;10360911;28;97916;-80
2022/04/02 16:54:25;;;;;;;20.73;12.23;;;4.20;99.90;;;2.18;95.73;98799.41;10387449;28;96571;-80
2022/04/02 16:59:37;;;;;;;21.23;12.47;;;4.10;99.90;;;2.08;95.95;98803.88;10385990;28;96498;-80
2022/04/02 17:04:39;;;;;;;30.33;17.10;;;4.00;99.90;;;1.98;96.56;98808.34;10429034;27;96546;-80
2022/04/02 17:09:47;;;;;;;31.80;19.40;;;3.90;99.90;;;1.88;96.55;98809.25;10386345;28;96542;-81
2022/04/02 17:14:50;;;;;;;27.00;15.37;;;3.80;99.90;;;1.82;96.97;98814.25;10380874;28;96484;-81
2022/04/02 17:19:59;;;;;;;25.60;14.50;;;3.70;99.90;;;1.73;97.05;98825.59;10414627;28;97747;-80
2022/04/02 17:25:05;;;;;;;23.57;13.97;;;3.60;99.90;;;1.61;97.03;98827.56;10414886;28;96446;-80
2022/04/02 17:30:15;;;;;;;22.60;13.97;;;3.50;99.90;;;1.53;97.59;98840.56;10386233;28;97676;-80
2022/04/02 17:35:24;;;;;;;28.90;16.53;;;3.40;99.90;;;1.44;97.35;98836.19;10398391;28;97418;-80
2022/04/02 17:40:31;;;;;;;30.13;16.90;;;3.30;99.90;;;1.37;97.79;98840.34;10411168;28;96891;-80
2022/04/02 17:45:36;;;;;;;35.57;18.63;;;3.20;99.90;;;1.26;98.24;98842.19;10384643;27;96639;-80
2022/04/02 17:50:52;;;;;;;33.90;18.30;;;3.20;99.90;;;1.18;98.35;98851.69;10375228;28;96446;-81
2022/04/02 17:56:09;;;;;;;27.57;17.50;;;3.10;99.90;;;1.12;98.47;98858.31;10397586;28;96874;-80
2022/04/02 18:01:35;;;;;;;26.17;15.67;;;3.00;99.90;;;1.05;98.35;98865.06;10405205;28;96567;-80
2022/04/02 18:06:42;;;;;;;28.83;16.07;;;3.00;99.90;;;0.99;98.32;98873.47;10397638;28;97414;-80
2022/04/02 18:11:45;;;;;;;28.63;16.73;;;2.90;99.90;;;0.92;98.90;98875.81;10360975;28;96526;-80
2022/04/02 18:16:48;;;;;;;29.10;16.13;;;2.80;99.90;;;0.89;98.86;98872.66;10387080;27;100130;-80
2022/04/02 18:21:52;;;;;;;25.20;14.17;;;2.80;99.90;;;0.86;99.03;98876.38;10390692;28;96959;-80
2022/04/02 18:26:55;;;;;;;28.90;15.30;;;2.80;99.90;;;0.82;99.43;98882.00;10368053;28;97510;-80
2022/04/02 18:31:58;;;;;;;29.57;16.17;;;2.70;99.90;;;0.75;99.47;98887.78;10393044;28;96621;-80
2022/04/02 18:37:02;;;;;;;27.53;16.00;;;2.70;99.90;;;0.69;99.23;98885.72;10411728;28;96666;-81
2022/04/02 18:42:05;;;;;;;27.43;16.47;;;2.60;99.90;;;0.62;99.18;98895.09;10412970;28;96593;-80
2022/04/02 18:47:08;;;;;;;28.23;16.83;;;2.60;99.90;;;0.54;99.21;98910.63;10410967;28;97511;-80
2022/04/02 18:52:13;;;;;;;31.13;17.23;;;2.50;99.90;;;0.46;99.63;98903.44;10406049;28;96837;-80
2022/04/02 18:57:16;;;;;;;28.73;16.80;;;2.40;99.90;;;0.39;99.87;98906.75;10395455;28;96609;-80
2022/04/02 19:02:19;;;;;;;29.33;15.93;;;2.40;99.90;;;0.32;99.77;98913.47;10404303;27;96531;-80
2022/04/02 19:07:22;;;;;;;25.60;14.87;;;2.30;99.90;;;0.29;100.00;98919.78;10391650;28;96624;-80
2022/04/02 19:12:25;;;;;;;29.90;16.83;;;2.30;99.90;;;0.24;100.00;98929.81;10377808;28;96712;-80
2022/04/02 19:17:32;;;;;;;27.67;17.20;;;2.20;99.90;;;0.19;100.00;98932.00;10386958;28;96458;-80
2022/04/02 19:22:35;;;;;;;27.80;17.80;;;2.20;99.90;;;0.16;100.00;98932.25;10369376;28;96524;-79
2022/04/02 19:27:39;;;;;;;29.23;17.10;;;2.10;99.90;;;0.13;100.00;98938.59;10408779;28;98226;-79
2022/04/02 19:32:42;;;;;;;24.93;15.13;;;2.10;99.90;;;0.12;100.00;98944.78;10401985;28;98337;-78
2022/04/02 19:37:45;;;;;;;28.47;16.20;;;2.10;99.90;;;0.07;100.00;98941.72;10412244;28;97057;-78
2022/04/02 19:42:48;;;;;;;28.27;16.87;;;2.10;99.90;;;0.06;100.00;98950.53;10382327;28;96615;-78
2022/04/02 19:47:51;;;;;;;28.27;16.60;;;2.10;99.90;;;0.03;100.00;98948.16;10391660;28;96729;-80
2022/04/02 19:52:54;;;;;;;29.27;16.77;;;2.00;99.90;;;0.02;100.00;98953.53;10360931;28;96665;-80
2022/04/02 19:57:58;;;;;;;29.40;16.03;;;2.00;99.90;;;0.02;100.00;98954.34;10398935;28;98590;-81
2022/04/02 20:03:03;;;;;;;28.93;16.43;;;2.00;99.90;;;0.00;100.00;98948.44;10382566;28;97057;-80
2022/04/02 20:08:06;;;;;;;27.47;15.83;;;2.00;99.90;;;-0.04;100.00;98950.47;10362710;28;96572;-81
2022/04/02 20:13:09;;;;;;;27.37;14.97;;;2.00;99.90;;;-0.04;100.00;98960.94;10398164;28;96728;-81
2022/04/02 20:18:12;;;;;;;25.87;15.33;;;2.00;99.90;;;-0.07;100.00;98962.97;10392809;28;96608;-81
2022/04/02 20:23:15;;;;;;;26.03;15.83;;;2.00;99.90;;;-0.10;100.00;98958.00;10361788;28;96576;-80
2022/04/02 20:28:18;;;;;;;28.53;16.00;;;1.90;99.90;;;-0.13;100.00;98963.47;10378688;28;98675;-80
2022/04/02 20:33:22;;;;;;;27.17;15.40;;;1.90;99.90;;;-0.17;100.00;98960.31;10373187;28;96594;-81
2022/04/02 20:38:25;;;;;;;28.40;16.53;;;1.80;99.90;;;-0.18;100.00;98960.44;10415950;28;96925;-80
2022/04/02 20:43:28;;;;;;;29.40;17.13;;;1.80;99.90;;;-0.20;100.00;98960.56;10382381;28;97380;-80
2022/04/02 20:48:31;;;;;;;27.23;15.70;;;1.80;99.90;;;-0.21;100.00;98971.16;10402840;28;96522;-80
2022/04/02 20:53:34;;;;;;;28.00;16.60;;;1.80;99.90;;;-0.21;100.00;98976.38;10408656;28;98721;-80
2022/04/02 20:58:37;;;;;;;27.60;15.87;;;1.80;99.90;;;-0.22;100.00;98980.75;10400088;28;96557;-80
2022/04/02 21:03:40;;;;;;;26.47;14.40;;;1.80;99.90;;;-0.21;100.00;98976.38;10392154;27;96676;-80
2022/04/02 21:08:43;;;;;;;27.07;15.07;;;1.80;99.90;;;-0.19;100.00;98984.88;10355567;28;96721;-80
2022/04/02 21:13:46;;;;;;;26.27;15.73;;;1.80;99.90;;;-0.19;100.00;98987.50;10393750;27;96679;-79
2022/04/02 21:18:49;;;;;;;28.47;15.53;;;1.80;99.90;;;-0.19;100.00;98993.53;10357370;28;96574;-80
2022/04/02 21:23:52;;;;;;;29.70;15.50;;;1.80;99.90;;;-0.17;100.00;98988.22;10405532;28;96593;-80
2022/04/02 21:29:00;;;;;;;31.07;16.53;;;1.90;99.90;;;-0.15;100.00;99005.41;10398318;28;96521;-79